Time;durP1;ratioP1;P1;durP2;ratioP2;P2;SDS_P1;SDS_P2;PMS_P1;PMS_P2;Temp;Humidity;BMP_temperature;BMP_pressure;BME280_temperature;BME280_humidity;BME280_pressure;Samples;Min_cycle;Max_cycle;Signal;HPM_P1;HPM_P2
2023/09/02 00:01:08;;;;;;;;;;;;;;;17.43;46.35;101074.72;5075431;28;991;-62
2023/09/02 00:03:35;;;;;;;;;;;;;;;17.26;46.08;101076.88;5063229;28;996;-61
2023/09/02 00:06:00;;;;;;;;;;;;;;;17.28;45.58;101075.50;5062296;28;1011;-61
2023/09/02 00:08:26;;;;;;;;;;;;;;;17.23;45.60;101080.16;5068578;28;1038;-61
2023/09/02 00:10:51;;;;;;;;;;;;;;;17.22;45.28;101073.00;5069049;28;1071;-61
2023/09/02 00:13:17;;;;;;;;;;;;;;;17.14;45.36;101079.03;5075481;28;999;-62
2023/09/02 00:15:42;;;;;;;;;;;;;;;17.14;45.13;101071.63;5075708;28;1030;-62
2023/09/02 00:18:08;;;;;;;;;;;;;;;17.20;45.07;101073.28;5063476;28;1901;-61
2023/09/02 00:20:33;;;;;;;;;;;;;;;17.09;45.34;101083.41;5063080;28;998;-62
2023/09/02 00:22:59;;;;;;;;;;;;;;;17.07;45.08;101074.63;5075134;28;1040;-62
2023/09/02 00:25:25;;;;;;;;;;;;;;;17.17;44.81;101075.78;5075207;28;1078;-62
2023/09/02 00:27:50;;;;;;;;;;;;;;;17.08;45.13;101079.03;5062596;28;1091;-61
2023/09/02 00:30:16;;;;;;;;;;;;;;;17.14;45.18;101073.53;5062841;28;984;-61
2023/09/02 00:32:41;;;;;;;;;;;;;;;17.04;45.08;101069.69;5055982;28;918;-61
2023/09/02 00:35:07;;;;;;;;;;;;;;;17.09;44.95;101061.44;5067804;28;1020;-62
2023/09/02 00:37:33;;;;;;;;;;;;;;;17.07;45.06;101069.13;5055471;28;1901;-61
2023/09/02 00:39:58;;;;;;;;;;;;;;;17.07;45.00;101058.16;5054794;28;1087;-62
2023/09/02 00:42:24;;;;;;;;;;;;;;;17.07;45.08;101063.63;5059927;28;1086;-63
2023/09/02 00:44:49;;;;;;;;;;;;;;;17.09;44.77;101064.19;5041905;28;1143;-62
2023/09/02 00:47:15;;;;;;;;;;;;;;;17.10;44.73;101068.59;5060441;28;2527;-63
2023/09/02 00:49:40;;;;;;;;;;;;;;;17.08;44.75;101062.56;5059567;28;1023;-62
2023/09/02 00:52:06;;;;;;;;;;;;;;;17.00;45.05;101065.81;5061128;28;1271;-62
2023/09/02 00:54:32;;;;;;;;;;;;;;;16.94;45.07;101061.38;5066159;28;1067;-62
2023/09/02 00:56:57;;;;;;;;;;;;;;;17.08;44.91;101068.03;5060878;28;1906;-62
2023/09/02 00:59:24;;;;;;;;;;;;;;;16.99;45.00;101066.91;5066170;28;1102;-62
2023/09/02 01:01:50;;;;;;;;;;;;;;;17.28;45.47;101060.97;5065573;28;1123;-62
2023/09/02 01:04:15;;;;;;;;;;;;;;;17.67;46.37;101065.97;5079132;28;980;-63
2023/09/02 01:06:41;;;;;;;;;;;;;;;17.36;46.64;101070.56;5047916;28;1067;-63
2023/09/02 01:09:07;;;;;;;;;;;;;;;17.21;46.49;101060.41;5048321;28;1285;-63
2023/09/02 01:11:35;;;;;;;;;;;;;;;17.15;46.10;101062.28;5071977;28;1062;-63
2023/09/02 01:14:01;;;;;;;;;;;;;;;17.23;45.58;101069.19;5079105;28;1091;-63
2023/09/02 01:16:27;;;;;;;;;;;;;;;17.20;45.34;101064.22;5060404;28;2354;-63
2023/09/02 01:18:52;;;;;;;;;;;;;;;17.14;45.32;101065.28;5071854;28;980;-61
2023/09/02 01:21:36;;;;;;;;;;;;;;;17.23;44.99;101063.69;5042020;28;1079;-61
2023/09/02 01:24:19;;;;;;;;;;;;;;;17.18;45.09;101067.25;5073447;28;921;-61
2023/09/02 01:27:03;;;;;;;;;;;;;;;17.09;45.41;101064.19;5034824;28;1209;-62
2023/09/02 01:29:31;;;;;;;;;;;;;;;17.72;46.52;101060.44;5054360;28;1032;-62
2023/09/02 01:31:57;;;;;;;;;;;;;;;17.52;46.26;101068.69;5051823;28;1100;-61
2023/09/02 01:34:23;;;;;;;;;;;;;;;17.32;46.36;101070.31;5058046;28;1215;-62
2023/09/02 01:36:50;;;;;;;;;;;;;;;17.29;45.97;101068.09;5054403;28;1968;-61
2023/09/02 01:39:15;;;;;;;;;;;;;;;17.26;45.70;101071.38;5040997;28;981;-60
2023/09/02 01:41:41;;;;;;;;;;;;;;;17.28;45.64;101070.00;5054150;28;1078;-61
2023/09/02 01:44:07;;;;;;;;;;;;;;;17.30;45.25;101079.91;5060648;28;1106;-60
2023/09/02 01:46:33;;;;;;;;;;;;;;;17.22;45.32;101073.00;5049330;28;2396;-62
2023/09/02 01:48:58;;;;;;;;;;;;;;;17.08;45.33;101070.78;5046271;28;1123;-62
2023/09/02 01:51:24;;;;;;;;;;;;;;;17.19;45.15;101073.56;5047541;28;1228;-61
2023/09/02 01:53:50;;;;;;;;;;;;;;;17.15;45.22;101076.00;5046787;28;973;-60
2023/09/02 01:56:15;;;;;;;;;;;;;;;17.15;45.08;101069.69;5078316;28;1901;-62
2023/09/02 01:58:41;;;;;;;;;;;;;;;17.09;45.13;101077.91;5043080;28;1260;-63
2023/09/02 02:01:07;;;;;;;;;;;;;;;17.14;45.00;101076.28;5078157;28;974;-63
2023/09/02 02:03:41;;;;;;;;;;;;;;;17.17;44.86;101067.53;5064609;28;1042;-60
2023/09/02 02:06:09;;;;;;;;;;;;;;;17.16;44.88;101068.63;5064495;28;1166;-60
2023/09/02 02:08:47;;;;;;;;;;;;;;;17.14;45.08;101071.63;5070454;28;984;-61
2023/09/02 02:11:13;;;;;;;;;;;;;;;17.09;45.05;101071.59;5064294;28;1167;-60
2023/09/02 02:13:38;;;;;;;;;;;;;;;17.09;45.08;101074.34;5068820;28;1028;-62
2023/09/02 02:16:04;;;;;;;;;;;;;;;17.14;44.86;101070.78;5058681;28;2331;-63
2023/09/02 02:18:30;;;;;;;;;;;;;;;17.07;44.84;101066.38;5049234;28;1106;-62
2023/09/02 02:21:00;;;;;;;;;;;;;;;17.76;45.80;101060.75;5062100;28;1019;-60
2023/09/02 02:23:25;;;;;;;;;;;;;;;17.56;46.66;101069.81;5031110;28;1684;-61
2023/09/02 02:25:51;;;;;;;;;;;;;;;17.33;46.24;101066.44;5043240;28;1297;-61
2023/09/02 02:28:17;;;;;;;;;;;;;;;17.30;46.09;101064.25;5067549;28;1041;-61
2023/09/02 02:30:43;;;;;;;;;;;;;;;17.33;45.45;101063.69;5045871;28;1119;-61
2023/09/02 02:33:08;;;;;;;;;;;;;;;17.28;45.46;101053.53;5068028;28;1158;-61
2023/09/02 02:35:34;;;;;;;;;;;;;;;17.24;45.25;101059.84;5060361;28;1158;-62
2023/09/02 02:37:59;;;;;;;;;;;;;;;17.28;45.31;101064.53;5067185;28;1992;-61
2023/09/02 02:40:26;;;;;;;;;;;;;;;17.20;45.27;101064.22;5055817;28;1208;-62
2023/09/02 02:42:51;;;;;;;;;;;;;;;17.20;45.17;101075.22;5077360;28;928;-61
2023/09/02 02:45:17;;;;;;;;;;;;;;;17.20;45.18;101069.72;5061109;28;1059;-62
2023/09/02 02:47:42;;;;;;;;;;;;;;;17.18;45.16;101069.16;5065736;28;2491;-62
2023/09/02 02:50:08;;;;;;;;;;;;;;;17.18;44.90;101072.75;5073472;28;1042;-62
2023/09/02 02:52:35;;;;;;;;;;;;;;;17.16;44.96;101071.38;5049184;28;1268;-61
2023/09/02 02:55:00;;;;;;;;;;;;;;;17.13;44.81;101074.66;5070346;28;1024;-62
2023/09/02 02:57:26;;;;;;;;;;;;;;;17.04;44.87;101077.06;5049139;28;1989;-62
2023/09/02 02:59:51;;;;;;;;;;;;;;;17.07;44.80;101084.81;5051290;28;1083;-62
2023/09/02 03:02:17;;;;;;;;;;;;;;;17.04;44.96;101091.66;5049705;28;1227;-61
2023/09/02 03:04:48;;;;;;;;;;;;;;;17.01;44.85;101088.59;5053063;28;1123;-62
2023/09/02 03:07:14;;;;;;;;;;;;;;;17.06;44.88;101086.72;5049565;28;1344;-62
2023/09/02 03:09:42;;;;;;;;;;;;;;;17.08;44.72;101090.03;5058482;28;1286;-62
2023/09/02 03:12:07;;;;;;;;;;;;;;;17.08;44.67;101084.53;5058848;28;1627;-61
2023/09/02 03:14:33;;;;;;;;;;;;;;;17.02;44.74;101091.09;5055368;28;1175;-61
2023/09/02 03:16:59;;;;;;;;;;;;;;;17.07;44.70;101102.09;5049201;28;1988;-58
2023/09/02 03:19:25;;;;;;;;;;;;;;;17.08;44.67;101097.41;5058721;28;1376;-59
2023/09/02 03:21:51;;;;;;;;;;;;;;;16.92;45.02;101099.28;5051573;28;1525;-59
2023/09/02 03:24:17;;;;;;;;;;;;;;;16.98;44.92;101100.97;5048950;28;1168;-59
2023/09/02 03:26:42;;;;;;;;;;;;;;;17.04;44.78;101102.66;5051663;28;1159;-55
2023/09/02 03:29:08;;;;;;;;;;;;;;;17.05;44.59;101101.53;5057702;28;1150;-56
2023/09/02 03:31:36;;;;;;;;;;;;;;;16.98;44.89;101109.19;5054385;28;1278;-55
2023/09/02 03:34:02;;;;;;;;;;;;;;;17.04;44.66;101105.41;5055990;28;1385;-56
2023/09/02 03:36:28;;;;;;;;;;;;;;;16.97;44.73;101103.97;5073745;28;1909;-55
2023/09/02 03:38:54;;;;;;;;;;;;;;;16.98;44.70;101100.97;5076166;28;1351;-57
2023/09/02 03:41:23;;;;;;;;;;;;;;;17.58;46.15;101104.16;5054185;28;1296;-56
2023/09/02 03:43:48;;;;;;;;;;;;;;;17.36;46.18;101107.16;5056883;28;1198;-56
2023/09/02 03:46:15;;;;;;;;;;;;;;;17.23;45.79;101113.16;5038662;28;1428;-60
2023/09/02 03:48:42;;;;;;;;;;;;;;;17.24;45.67;101112.88;5069776;28;845;-56
2023/09/02 03:51:17;;;;;;;;;;;;;;;17.18;45.58;101122.22;5049130;28;1207;-57
2023/09/02 03:53:53;;;;;;;;;;;;;;;17.10;45.60;101112.56;5057064;28;1313;-56
2023/09/02 03:56:19;;;;;;;;;;;;;;;17.08;45.36;101106.50;5056902;28;1977;-56
2023/09/02 03:58:45;;;;;;;;;;;;;;;17.04;45.41;101112.78;5072777;28;1423;-54
2023/09/02 04:01:12;;;;;;;;;;;;;;;17.02;45.54;101110.31;5055563;28;1481;-56
2023/09/02 04:03:38;;;;;;;;;;;;;;;17.04;45.39;101121.03;5055550;28;1098;-57
2023/09/02 04:06:07;;;;;;;;;;;;;;;17.07;45.22;101121.34;5056972;28;1114;-56
2023/09/02 04:08:36;;;;;;;;;;;;;;;16.93;45.54;101115.50;5051554;28;1129;-58
2023/09/02 04:11:02;;;;;;;;;;;;;;;17.07;45.57;101126.03;5037490;28;1135;-57
2023/09/02 04:13:29;;;;;;;;;;;;;;;17.07;45.48;101110.34;5048700;28;1388;-57
2023/09/02 04:15:57;;;;;;;;;;;;;;;17.01;45.36;101116.94;5048055;28;1110;-59
2023/09/02 04:18:24;;;;;;;;;;;;;;;16.97;45.31;101115.81;5044433;28;1905;-48
2023/09/02 04:20:49;;;;;;;;;;;;;;;16.95;45.51;101120.72;5057774;28;1500;-48
2023/09/02 04:23:15;;;;;;;;;;;;;;;16.89;45.37;101108.06;5053942;28;1897;-57
2023/09/02 04:25:46;;;;;;;;;;;;;;;17.00;45.44;101122.66;5058015;28;1315;-57
2023/09/02 04:28:13;;;;;;;;;;;;;;;17.04;45.30;101119.13;5046176;28;1455;-57
2023/09/02 04:30:39;;;;;;;;;;;;;;;16.95;45.33;101117.97;5063242;28;1355;-58
2023/09/02 04:33:04;;;;;;;;;;;;;;;17.03;45.23;101128.47;5058408;28;1158;-57
2023/09/02 04:35:37;;;;;;;;;;;;;;;16.99;45.18;101130.09;5055072;28;1552;-59
2023/09/02 04:38:03;;;;;;;;;;;;;;;17.03;45.11;101125.72;5051087;28;1901;-58
2023/09/02 04:40:29;;;;;;;;;;;;;;;16.88;45.40;101126.47;5051438;28;1372;-58
2023/09/02 04:42:56;;;;;;;;;;;;;;;17.71;45.36;101141.34;5059842;28;886;-58
2023/09/02 04:45:23;;;;;;;;;;;;;;;18.08;44.81;101134.78;5051032;28;1357;-58
2023/09/02 04:47:49;;;;;;;;;;;;;;;17.87;46.05;101144.09;5064396;28;1305;-59
2023/09/02 04:50:14;;;;;;;;;;;;;;;17.71;46.66;101141.34;5046945;28;1348;-59
2023/09/02 04:52:44;;;;;;;;;;;;;;;17.65;47.06;101142.41;5044166;28;2411;-59
2023/09/02 04:55:10;;;;;;;;;;;;;;;17.66;47.60;101144.06;5047689;28;1047;-59
2023/09/02 04:57:36;;;;;;;;;;;;;;;17.52;48.09;101132.75;5068970;28;1964;-59
2023/09/02 05:00:03;;;;;;;;;;;;;;;17.48;48.57;101139.06;5037823;28;1314;-59
2023/09/02 05:02:29;;;;;;;;;;;;;;;17.45;48.63;101146.75;5068968;28;1008;-60
2023/09/02 05:04:54;;;;;;;;;;;;;;;17.39;49.13;101147.84;5072401;28;824;-59
2023/09/02 05:07:20;;;;;;;;;;;;;;;17.38;49.50;101146.19;5041282;28;1162;-59
2023/09/02 05:09:46;;;;;;;;;;;;;;;17.37;49.54;101139.03;5055820;28;1155;-60
2023/09/02 05:12:12;;;;;;;;;;;;;;;17.34;49.68;101142.31;5072206;28;1117;-60
2023/09/02 05:14:39;;;;;;;;;;;;;;;17.27;50.18;101147.25;5064949;28;1054;-59
2023/09/02 05:17:04;;;;;;;;;;;;;;;17.28;50.18;101148.91;5071645;28;1977;-60
2023/09/02 05:19:30;;;;;;;;;;;;;;;17.26;50.22;101145.59;5037320;28;1218;-61
2023/09/02 05:21:57;;;;;;;;;;;;;;;17.18;50.58;101137.84;5058573;28;1155;-60
2023/09/02 05:24:23;;;;;;;;;;;;;;;17.20;50.72;101139.25;5050764;28;2535;-61
2023/09/02 05:26:48;;;;;;;;;;;;;;;17.20;50.98;101138.44;5041069;28;1017;-61
2023/09/02 05:29:14;;;;;;;;;;;;;;;17.09;51.08;101132.06;5076858;28;874;-60
2023/09/02 05:31:39;;;;;;;;;;;;;;;17.07;51.47;101137.00;5061803;28;1189;-61
2023/09/02 05:34:05;;;;;;;;;;;;;;;17.08;51.40;101130.41;5058222;28;1197;-59
2023/09/02 05:36:31;;;;;;;;;;;;;;;17.08;51.42;101138.63;5058106;28;1968;-60
2023/09/02 05:38:56;;;;;;;;;;;;;;;17.04;51.52;101138.38;5058625;28;1007;-60
2023/09/02 05:41:24;;;;;;;;;;;;;;;17.06;51.89;101141.66;5076762;28;869;-60
2023/09/02 05:43:50;;;;;;;;;;;;;;;17.02;51.93;101132.28;5060320;28;1169;-60
2023/09/02 05:46:15;;;;;;;;;;;;;;;17.06;51.82;101141.66;5069960;28;1505;-60
2023/09/02 05:48:41;;;;;;;;;;;;;;;17.08;51.70;101138.63;5065084;28;1040;-60
2023/09/02 05:51:06;;;;;;;;;;;;;;;17.02;52.13;101137.78;5067070;28;1063;-62
2023/09/02 05:53:32;;;;;;;;;;;;;;;17.02;52.24;101146.03;5076648;28;1835;-60
2023/09/02 05:55:57;;;;;;;;;;;;;;;17.07;51.86;101143.31;5075530;28;1066;-58
2023/09/02 05:58:26;;;;;;;;;;;;;;;17.01;52.07;101143.56;5058021;28;1901;-58
2023/09/02 06:00:51;;;;;;;;;;;;;;;16.94;52.42;101138.28;5057967;28;992;-58
2023/09/02 06:03:17;;;;;;;;;;;;;;;16.93;52.48;101142.97;5072031;28;1048;-58
2023/09/02 06:05:42;;;;;;;;;;;;;;;16.92;52.29;101140.50;5077371;28;1251;-58
2023/09/02 06:08:08;;;;;;;;;;;;;;;16.95;52.45;101145.44;5078017;28;1065;-59
2023/09/02 06:10:33;;;;;;;;;;;;;;;16.91;52.30;101144.34;5075772;28;1098;-59
2023/09/02 06:12:59;;;;;;;;;;;;;;;16.92;52.58;101146.00;5075474;28;1051;-54
2023/09/02 06:15:25;;;;;;;;;;;;;;;16.89;52.44;101149.28;5077808;28;1115;-57
2023/09/02 06:17:50;;;;;;;;;;;;;;;16.91;52.60;101147.06;5074841;28;1913;-56
2023/09/02 06:20:20;;;;;;;;;;;;;;;16.97;52.49;101159.75;5062287;28;1028;-52
2023/09/02 06:22:45;;;;;;;;;;;;;;;16.90;52.78;101146.25;5064247;28;2469;-58
2023/09/02 06:25:11;;;;;;;;;;;;;;;16.94;52.51;101154.78;5058810;28;1004;-58
2023/09/02 06:27:37;;;;;;;;;;;;;;;16.88;52.90;101156.69;5057191;28;1027;-59
2023/09/02 06:30:03;;;;;;;;;;;;;;;16.86;52.79;101158.03;5075068;28;1436;-54
2023/09/02 06:32:28;;;;;;;;;;;;;;;16.91;52.76;101161.66;5077469;28;1034;-57
2023/09/02 06:34:54;;;;;;;;;;;;;;;16.87;52.97;101162.41;5058996;28;1054;-54
2023/09/02 06:37:19;;;;;;;;;;;;;;;16.92;52.84;101163.28;5075229;28;1957;-58
2023/09/02 06:39:45;;;;;;;;;;;;;;;16.84;52.72;101171.19;5067267;28;1193;-58
2023/09/02 06:42:10;;;;;;;;;;;;;;;16.89;52.84;101168.50;5076903;28;1079;-58
2023/09/02 06:44:37;;;;;;;;;;;;;;;16.90;52.91;101167.38;5059274;28;1254;-58
2023/09/02 06:47:03;;;;;;;;;;;;;;;16.91;52.72;101167.16;5059588;28;1163;-58
2023/09/02 06:49:32;;;;;;;;;;;;;;;16.86;53.12;101169.81;5055210;28;1353;-57
2023/09/02 06:51:58;;;;;;;;;;;;;;;16.91;52.79;101169.91;5060216;28;1324;-57
2023/09/02 06:54:23;;;;;;;;;;;;;;;16.86;52.91;101174.50;5056955;28;1134;-55
2023/09/02 06:56:50;;;;;;;;;;;;;;;16.88;52.94;101166.81;5062574;28;1959;-56
2023/09/02 06:59:16;;;;;;;;;;;;;;;16.86;53.19;101174.50;5064723;28;1174;-58
2023/09/02 07:01:41;;;;;;;;;;;;;;;16.84;52.87;101168.44;5073120;28;1088;-58
2023/09/02 07:04:07;;;;;;;;;;;;;;;16.90;52.89;101170.13;5076734;28;1162;-57
2023/09/02 07:06:32;;;;;;;;;;;;;;;16.86;52.95;101166.25;5058763;28;1015;-58
2023/09/02 07:08:59;;;;;;;;;;;;;;;16.88;52.79;101164.91;5068667;28;1092;-59
2023/09/02 07:11:24;;;;;;;;;;;;;;;16.87;53.09;101170.66;5058580;28;1097;-52
2023/09/02 07:13:50;;;;;;;;;;;;;;;16.87;52.91;101167.91;5068007;28;996;-58
2023/09/02 07:16:15;;;;;;;;;;;;;;;16.86;53.27;101163.53;5075056;28;1070;-57
2023/09/02 07:18:41;;;;;;;;;;;;;;;16.87;53.26;101165.16;5076162;28;1154;-59
2023/09/02 07:21:07;;;;;;;;;;;;;;;16.82;53.30;101162.41;5058576;28;1127;-57
2023/09/02 07:23:32;;;;;;;;;;;;;;;16.82;53.40;101160.47;5069285;28;2621;-57
2023/09/02 07:26:01;;;;;;;;;;;;;;;16.87;53.49;101160.50;5076008;28;1078;-57
2023/09/02 07:28:30;;;;;;;;;;;;;;;16.84;53.25;101160.19;5067786;28;1007;-57
2023/09/02 07:30:55;;;;;;;;;;;;;;;16.82;53.45;101162.41;5075743;28;1047;-58
2023/09/02 07:33:21;;;;;;;;;;;;;;;16.84;53.20;101166.50;5064028;28;1110;-56
2023/09/02 07:35:47;;;;;;;;;;;;;;;16.89;53.29;101154.78;5061812;28;1079;-59
2023/09/02 07:38:13;;;;;;;;;;;;;;;16.84;53.30;101155.53;5075961;28;1980;-59
2023/09/02 07:40:39;;;;;;;;;;;;;;;16.83;53.44;101164.88;5067333;28;1054;-54
2023/09/02 07:43:05;;;;;;;;;;;;;;;16.81;53.38;101160.72;5063866;28;1323;-57
2023/09/02 07:45:30;;;;;;;;;;;;;;;16.81;53.56;101158.81;5062682;28;920;-57
2023/09/02 07:47:56;;;;;;;;;;;;;;;16.88;53.26;101156.69;5069708;28;1051;-57
2023/09/02 07:50:21;;;;;;;;;;;;;;;16.83;53.51;101164.03;5056293;28;1000;-56
2023/09/02 07:52:47;;;;;;;;;;;;;;;16.82;53.45;101160.47;5056827;28;2356;-58
2023/09/02 07:55:13;;;;;;;;;;;;;;;16.90;53.24;101159.16;5067915;28;1179;-58
2023/09/02 07:57:39;;;;;;;;;;;;;;;16.63;53.63;101140.03;5076311;28;1914;-48
2023/09/02 08:00:05;;;;;;;;;;;;;;;16.92;53.04;101162.47;5063411;28;1143;-60
2023/09/02 08:02:37;;;;;;;;;;;;;;;16.80;53.32;101159.88;5075550;28;1110;-56
2023/09/02 08:05:03;;;;;;;;;;;;;;;16.81;53.45;101155.25;5055646;28;1178;-58
2023/09/02 08:07:30;;;;;;;;;;;;;;;16.82;53.62;101163.22;5056388;28;1189;-60
2023/09/02 08:09:56;;;;;;;;;;;;;;;16.84;53.56;101160.19;5075698;28;1127;-59
2023/09/02 08:12:22;;;;;;;;;;;;;;;16.82;53.33;101160.47;5062692;28;1127;-59
2023/09/02 08:14:47;;;;;;;;;;;;;;;16.79;53.59;101162.91;5075342;28;1229;-58
2023/09/02 08:17:14;;;;;;;;;;;;;;;16.82;53.49;101151.41;5067036;28;1973;-57
2023/09/02 08:19:39;;;;;;;;;;;;;;;16.85;53.60;101153.63;5075696;28;1117;-58
2023/09/02 08:22:05;;;;;;;;;;;;;;;16.81;53.46;101156.06;5062017;28;2335;-59
2023/09/02 08:24:31;;;;;;;;;;;;;;;16.83;53.35;101151.16;5075891;28;1038;-59
2023/09/02 08:26:56;;;;;;;;;;;;;;;16.84;53.45;101162.94;5074179;28;1086;-59
2023/09/02 08:29:22;;;;;;;;;;;;;;;16.82;53.35;101154.16;5055465;28;1008;-60
2023/09/02 08:31:54;;;;;;;;;;;;;;;16.83;53.28;101158.53;5055816;28;1078;-59
2023/09/02 08:34:20;;;;;;;;;;;;;;;16.82;53.73;101154.97;5058103;28;1118;-60
2023/09/02 08:36:45;;;;;;;;;;;;;;;16.86;53.47;101152.53;5055463;28;1977;-59
2023/09/02 08:39:11;;;;;;;;;;;;;;;16.87;53.52;101148.66;5055079;28;1119;-59
2023/09/02 08:41:36;;;;;;;;;;;;;;;16.89;53.50;101160.25;5064426;28;1058;-61
2023/09/02 08:44:02;;;;;;;;;;;;;;;16.84;53.55;101155.53;5038155;28;1047;-56
2023/09/02 08:46:28;;;;;;;;;;;;;;;16.80;53.69;101159.06;5055602;28;1127;-60
2023/09/02 08:48:55;;;;;;;;;;;;;;;16.93;53.26;101151.22;5044801;28;1095;-59
2023/09/02 08:51:21;;;;;;;;;;;;;;;16.89;53.29;101154.78;5061650;28;1086;-57
2023/09/02 08:53:46;;;;;;;;;;;;;;;16.88;53.54;101155.81;5074491;28;2653;-57
2023/09/02 08:56:12;;;;;;;;;;;;;;;16.89;53.46;101161.09;5044112;28;1097;-57
2023/09/02 08:58:38;;;;;;;;;;;;;;;16.89;53.46;101158.34;5073126;28;1967;-58
2023/09/02 09:01:04;;;;;;;;;;;;;;;16.91;53.44;101152.56;5059992;28;1155;-58
2023/09/02 09:03:29;;;;;;;;;;;;;;;16.94;53.41;101149.28;5072462;28;1100;-60
2023/09/02 09:05:56;;;;;;;;;;;;;;;16.90;53.25;101143.50;5050908;28;1127;-62
2023/09/02 09:08:22;;;;;;;;;;;;;;;16.86;53.54;101145.09;5061316;28;1063;-59
2023/09/02 09:10:48;;;;;;;;;;;;;;;16.88;53.40;101153.06;5078753;28;1106;-57
2023/09/02 09:13:13;;;;;;;;;;;;;;;16.91;53.27;101156.16;5071728;28;1555;-57
2023/09/02 09:15:39;;;;;;;;;;;;;;;16.96;53.11;101158.09;5059178;28;1091;-58
2023/09/02 09:18:04;;;;;;;;;;;;;;;16.86;53.48;101153.34;5078317;28;1906;-59
2023/09/02 09:20:30;;;;;;;;;;;;;;;16.95;53.32;101152.88;5065108;28;1011;-59
2023/09/02 09:22:56;;;;;;;;;;;;;;;16.89;53.61;101146.53;5077733;28;2524;-57
2023/09/02 09:25:22;;;;;;;;;;;;;;;16.91;53.24;101144.34;5065483;28;1095;-57
2023/09/02 09:27:48;;;;;;;;;;;;;;;16.88;53.55;101150.34;5071543;28;1066;-61
2023/09/02 09:30:27;;;;;;;;;;;;;;;16.93;53.46;101148.47;5072475;28;1000;-58
2023/09/02 09:32:56;;;;;;;;;;;;;;;16.96;53.21;101140.78;5077931;28;1327;-59
2023/09/02 09:35:22;;;;;;;;;;;;;;;16.93;53.30;101142.97;5065079;28;1066;-61
2023/09/02 09:37:54;;;;;;;;;;;;;;;16.96;53.49;101141.63;5066386;28;1901;-60
2023/09/02 09:40:30;;;;;;;;;;;;;;;16.93;53.39;101137.47;5069626;28;1259;-60
2023/09/02 09:42:56;;;;;;;;;;;;;;;16.95;53.41;101134.47;5073289;28;856;-59
2023/09/02 09:45:21;;;;;;;;;;;;;;;16.96;53.39;101130.63;5075091;28;1221;-58
2023/09/02 09:47:47;;;;;;;;;;;;;;;16.92;53.35;101126.75;5057959;28;1190;-58
2023/09/02 09:50:13;;;;;;;;;;;;;;;16.95;53.54;101134.47;5041127;28;1201;-59
2023/09/02 09:52:39;;;;;;;;;;;;;;;16.84;53.85;101125.31;5063627;28;2227;-58
2023/09/02 09:55:04;;;;;;;;;;;;;;;16.97;53.38;101121.31;5060562;28;1138;-59
2023/09/02 09:57:30;;;;;;;;;;;;;;;16.92;53.55;101124.03;5061036;28;1902;-60
2023/09/02 09:59:56;;;;;;;;;;;;;;;16.91;53.57;101125.94;5068916;28;995;-59
2023/09/02 10:02:21;;;;;;;;;;;;;;;16.92;53.64;101124.84;5069919;28;1292;-59
2023/09/02 10:04:51;;;;;;;;;;;;;;;16.95;53.51;101117.16;5064531;28;990;-57
2023/09/02 10:07:19;;;;;;;;;;;;;;;16.96;53.69;101125.13;5077946;28;888;-58
2023/09/02 10:09:45;;;;;;;;;;;;;;;16.99;53.64;101123.78;5072894;28;1107;-58
2023/09/02 10:12:11;;;;;;;;;;;;;;;16.99;53.76;101129.28;5058060;28;1161;-58
2023/09/02 10:14:40;;;;;;;;;;;;;;;17.03;53.75;101122.16;5071530;28;1091;-56
2023/09/02 10:17:06;;;;;;;;;;;;;;;16.99;53.59;101124.59;5039994;28;1977;-59
2023/09/02 10:19:32;;;;;;;;;;;;;;;17.02;53.76;101126.00;5070915;28;911;-57
2023/09/02 10:21:57;;;;;;;;;;;;;;;16.96;53.83;101132.53;5057682;28;1222;-53
2023/09/02 10:24:23;;;;;;;;;;;;;;;16.88;54.02;101128.34;5053209;28;996;-52
2023/09/02 10:26:49;;;;;;;;;;;;;;;16.98;53.81;101133.09;5068826;28;1024;-53
2023/09/02 10:29:14;;;;;;;;;;;;;;;16.96;53.76;101129.78;5041710;28;1091;-58
2023/09/02 10:31:40;;;;;;;;;;;;;;;16.95;54.05;101128.97;5058484;28;924;-56
2023/09/02 10:34:25;;;;;;;;;;;;;;;16.95;53.93;101128.97;5072345;28;1186;-56
2023/09/02 10:36:54;;;;;;;;;;;;;;;16.96;54.14;101140.78;5052886;28;1980;-53
2023/09/02 10:39:35;;;;;;;;;;;;;;;16.97;54.40;101146.03;5065826;28;984;-54
2023/09/02 10:42:01;;;;;;;;;;;;;;;16.97;54.41;101142.44;5065526;28;1098;-63
2023/09/02 10:44:26;;;;;;;;;;;;;;;16.99;54.42;101143.81;5049924;28;1241;-57
2023/09/02 10:46:53;;;;;;;;;;;;;;;17.00;54.30;101130.91;5052934;28;1147;-57
2023/09/02 10:49:18;;;;;;;;;;;;;;;17.01;54.54;101144.41;5039707;28;1020;-58
2023/09/02 10:51:44;;;;;;;;;;;;;;;17.04;54.41;101143.84;5041716;28;1039;-59
2023/09/02 10:54:09;;;;;;;;;;;;;;;16.96;54.54;101144.38;5067247;28;2082;-59
2023/09/02 10:56:35;;;;;;;;;;;;;;;17.00;54.59;101142.75;5072891;28;1925;-57
2023/09/02 10:59:02;;;;;;;;;;;;;;;16.97;54.86;101137.78;5068054;28;1151;-52
2023/09/02 11:01:43;;;;;;;;;;;;;;;16.97;54.74;101143.28;5056769;28;1072;-50
2023/09/02 11:04:09;;;;;;;;;;;;;;;16.97;54.74;101142.44;5056758;28;1123;-57
2023/09/02 11:06:34;;;;;;;;;;;;;;;17.00;54.72;101145.50;5074789;28;1544;-55
2023/09/02 11:09:00;;;;;;;;;;;;;;;16.99;54.86;101143.00;5065113;28;1078;-52
2023/09/02 11:11:25;;;;;;;;;;;;;;;16.96;54.68;101133.38;5061819;28;1135;-55
2023/09/02 11:14:06;;;;;;;;;;;;;;;16.98;54.70;101131.19;5047271;28;1255;-57
2023/09/02 11:16:32;;;;;;;;;;;;;;;16.98;54.81;101135.84;5056533;28;1971;-54
2023/09/02 11:19:00;;;;;;;;;;;;;;;16.96;54.72;101138.03;5069557;28;1031;-54
2023/09/02 11:21:42;;;;;;;;;;;;;;;17.01;54.47;101135.31;5068661;28;1059;-58
2023/09/02 11:24:17;;;;;;;;;;;;;;;17.05;54.33;101129.00;5071732;28;2491;-50
2023/09/02 11:26:49;;;;;;;;;;;;;;;17.00;54.70;101131.75;5067547;28;1047;-57
2023/09/02 11:29:21;;;;;;;;;;;;;;;17.01;54.87;101133.41;5063156;28;1056;-55
2023/09/02 11:31:56;;;;;;;;;;;;;;;17.02;54.76;101129.53;5076062;28;891;-52
2023/09/02 11:34:25;;;;;;;;;;;;;;;16.98;54.86;101127.63;5056368;28;1112;-53
2023/09/02 11:36:51;;;;;;;;;;;;;;;17.04;54.63;101127.38;5068633;28;1902;-56
2023/09/02 11:39:17;;;;;;;;;;;;;;;17.02;55.04;101143.28;5070022;28;995;-49
2023/09/02 11:41:43;;;;;;;;;;;;;;;17.02;54.83;101123.25;5059168;28;1148;-53
2023/09/02 11:44:11;;;;;;;;;;;;;;;17.04;54.76;101124.63;5056313;28;929;-49
2023/09/02 11:46:37;;;;;;;;;;;;;;;17.04;54.80;101132.88;5062960;28;1113;-56
2023/09/02 11:49:03;;;;;;;;;;;;;;;17.04;55.09;101135.63;5057193;28;996;-48
2023/09/02 11:51:28;;;;;;;;;;;;;;;17.07;54.63;101137.00;5056773;28;1218;-56
2023/09/02 11:53:57;;;;;;;;;;;;;;;17.01;54.91;101141.66;5050923;28;2680;-49
2023/09/02 11:56:24;;;;;;;;;;;;;;;17.09;54.58;101143.88;5074079;28;888;-49
2023/09/02 11:58:49;;;;;;;;;;;;;;;17.02;54.91;101132.28;5055871;28;1914;-51
2023/09/02 12:01:15;;;;;;;;;;;;;;;17.06;54.93;101136.16;5056348;28;1023;-54
2023/09/02 12:03:41;;;;;;;;;;;;;;;17.04;54.77;101137.53;5056075;28;1123;-53
2023/09/02 12:06:06;;;;;;;;;;;;;;;17.07;54.60;101137.81;5057273;28;1127;-52
2023/09/02 12:08:32;;;;;;;;;;;;;;;17.05;54.83;101133.69;5063896;28;1006;-55
2023/09/02 12:11:02;;;;;;;;;;;;;;;17.04;54.80;101132.88;5075711;28;1153;-55
2023/09/02 12:13:28;;;;;;;;;;;;;;;17.10;54.55;101136.47;5067621;28;1146;-56
2023/09/02 12:15:54;;;;;;;;;;;;;;;17.00;54.85;101137.25;5038111;28;1007;-58
2023/09/02 12:18:20;;;;;;;;;;;;;;;17.08;54.54;101133.16;5064256;28;1918;-57
2023/09/02 12:20:46;;;;;;;;;;;;;;;17.05;54.79;101136.44;5056220;28;1027;-54
2023/09/02 12:23:12;;;;;;;;;;;;;;;17.07;54.85;101137.81;5065772;28;2621;-58
2023/09/02 12:25:39;;;;;;;;;;;;;;;17.05;54.63;101137.25;5062594;28;1115;-56
2023/09/02 12:28:08;;;;;;;;;;;;;;;17.02;55.00;101140.53;5075686;28;1070;-51
2023/09/02 12:30:33;;;;;;;;;;;;;;;17.01;54.96;101149.91;5061730;28;1027;-49
2023/09/02 12:32:59;;;;;;;;;;;;;;;16.98;54.94;101133.94;5078964;28;1015;-57
2023/09/02 12:35:25;;;;;;;;;;;;;;;16.94;55.04;101135.56;5064682;28;999;-53
2023/09/02 12:38:03;;;;;;;;;;;;;;;16.99;55.14;101140.25;5068018;28;1983;-57
2023/09/02 12:40:29;;;;;;;;;;;;;;;16.99;54.99;101140.25;5065833;28;1079;-59
2023/09/02 12:42:54;;;;;;;;;;;;;;;16.90;55.05;101139.94;5073664;28;1167;-57
2023/09/02 12:45:46;;;;;;;;;;;;;;;17.00;54.99;101142.75;5079540;28;1059;-54